createdAt,value
2023-02-01T00:02:08.438Z,3.28
2023-02-01T00:04:36.895Z,5.18
2023-02-01T00:07:05.116Z,2.83
2023-02-01T00:09:33.758Z,3.95
2023-02-01T00:12:03.772Z,4.03
2023-02-01T00:14:39.328Z,3.90
2023-02-01T00:17:09.895Z,3.25
2023-02-01T00:19:39.648Z,3.25
2023-02-01T00:22:09.485Z,4.18
2023-02-01T00:24:39.236Z,4.22
2023-02-01T00:27:09.185Z,4.10
2023-02-01T00:29:38.811Z,3.05
2023-02-01T00:32:08.623Z,4.05
2023-02-01T00:34:38.626Z,3.45
2023-02-01T00:37:08.816Z,2.72
2023-02-01T00:39:38.620Z,4.80
2023-02-01T00:42:13.066Z,3.75
2023-02-01T00:44:43.359Z,3.40
2023-02-01T00:47:11.746Z,2.58
2023-02-01T00:49:40.217Z,4.47
2023-02-01T00:52:08.624Z,4.05
2023-02-01T00:54:38.395Z,3.35
2023-02-01T00:57:05.459Z,4.95
2023-02-01T00:59:34.004Z,3.53
2023-02-01T01:02:02.406Z,3.47
2023-02-01T01:04:30.876Z,3.65
2023-02-01T01:06:59.117Z,3.45
2023-02-01T01:09:27.577Z,3.65
2023-02-01T01:11:56.138Z,3.72
2023-02-01T01:14:24.392Z,2.40
2023-02-01T01:16:52.807Z,2.78
2023-02-01T01:19:21.492Z,2.80
2023-02-01T01:21:49.956Z,3.17
2023-02-01T01:24:18.054Z,2.72
2023-02-01T01:26:46.918Z,3.20
2023-02-01T01:29:14.893Z,4.20
2023-02-01T01:31:43.487Z,2.90
2023-02-01T01:34:11.850Z,3.60
2023-02-01T01:36:40.215Z,3.88
2023-02-01T01:39:08.766Z,4.38
2023-02-01T01:41:36.965Z,4.22
2023-02-01T01:44:46.771Z,4.38
2023-02-01T01:47:17.769Z,3.13
2023-02-01T01:49:48.307Z,3.13
2023-02-01T01:52:21.023Z,2.88
2023-02-01T01:54:55.013Z,3.00
2023-02-01T01:57:43.111Z,3.47
2023-02-01T02:00:21.668Z,3.25
2023-02-01T02:03:18.188Z,2.95
2023-02-01T02:05:53.089Z,3.20
2023-02-01T02:08:26.764Z,3.25
2023-02-01T02:11:03.189Z,2.97
2023-02-01T02:13:49.141Z,4.10
2023-02-01T02:16:52.473Z,3.97
2023-02-01T02:19:53.252Z,3.65
2023-02-01T02:23:24.377Z,3.08
2023-02-01T02:26:31.151Z,4.00
2023-02-01T02:29:32.825Z,2.90
2023-02-01T02:32:11.144Z,3.28
2023-02-01T02:35:17.351Z,5.20
2023-02-01T02:37:59.287Z,3.65
2023-02-01T02:40:38.645Z,3.08
2023-02-01T02:43:40.764Z,3.80
2023-02-01T02:46:44.346Z,3.75
2023-02-01T02:50:08.069Z,3.35
2023-02-01T02:53:32.203Z,3.45
2023-02-01T02:56:28.163Z,3.00
2023-02-01T02:59:20.587Z,3.15
2023-02-01T03:02:10.428Z,3.58
2023-02-01T03:04:41.593Z,4.45
2023-02-01T03:07:45.273Z,3.38
2023-02-01T03:11:07.500Z,3.58
2023-02-01T03:13:56.112Z,3.83
2023-02-01T03:16:55.950Z,4.03
2023-02-01T03:19:38.634Z,4.00
2023-02-01T03:22:17.827Z,4.35
2023-02-01T03:25:06.166Z,3.63
2023-02-01T03:28:01.645Z,3.30
2023-02-01T03:30:43.186Z,3.97
2023-02-01T03:33:24.245Z,3.72
2023-02-01T03:36:23.789Z,3.95
2023-02-01T03:39:36.615Z,4.60
2023-02-01T03:42:38.019Z,4.05
2023-02-01T03:45:44.561Z,3.33
2023-02-01T03:48:20.106Z,3.88
2023-02-01T03:51:01.336Z,3.38
2023-02-01T03:53:37.570Z,5.30
2023-02-01T03:56:12.637Z,3.83
2023-02-01T03:58:42.735Z,3.80
2023-02-01T04:01:12.796Z,4.50
2023-02-01T04:03:42.815Z,2.97
2023-02-01T04:06:12.802Z,3.80
2023-02-01T04:08:42.794Z,4.15
2023-02-01T04:11:12.783Z,3.40
2023-02-01T04:13:43.370Z,4.65
2023-02-01T04:16:13.888Z,4.80
2023-02-01T04:18:44.282Z,3.65
2023-02-01T04:21:14.312Z,3.83
2023-02-01T04:23:44.422Z,3.55
2023-02-01T04:26:14.452Z,3.53
2023-02-01T04:28:44.545Z,3.50
2023-02-01T04:31:26.431Z,3.30
2023-02-01T04:33:58.672Z,3.63
2023-02-01T04:36:28.757Z,4.10
2023-02-01T04:38:58.775Z,3.47
2023-02-01T04:41:30.077Z,4.65
2023-02-01T04:44:00.131Z,3.78
2023-02-01T04:46:30.234Z,4.35
2023-02-01T04:48:58.569Z,4.95
2023-02-01T04:51:27.007Z,4.82
2023-02-01T04:53:56.862Z,4.17
2023-02-01T04:56:26.813Z,3.95
2023-02-01T04:58:56.392Z,3.95
2023-02-01T05:01:25.641Z,3.47
2023-02-01T05:03:55.931Z,3.30
2023-02-01T05:06:26.116Z,3.75
2023-02-01T05:08:56.163Z,5.40
2023-02-01T05:11:44.717Z,4.85
2023-02-01T05:14:14.768Z,3.85
2023-02-01T05:16:44.753Z,5.68
2023-02-01T05:19:15.094Z,3.33
2023-02-01T05:21:45.111Z,4.18
2023-02-01T05:24:17.490Z,4.03
2023-02-01T05:26:50.134Z,4.43
2023-02-01T05:29:20.947Z,4.03
2023-02-01T05:31:51.190Z,3.60
2023-02-01T05:34:21.392Z,4.13
2023-02-01T05:36:48.688Z,3.55
2023-02-01T05:39:15.882Z,4.72
2023-02-01T05:41:46.201Z,5.18
2023-02-01T05:44:16.239Z,4.15
2023-02-01T05:46:46.204Z,3.50
2023-02-01T05:49:16.199Z,4.13
2023-02-01T05:51:44.715Z,4.75
2023-02-01T05:54:13.454Z,3.97
2023-02-01T05:56:41.913Z,4.03
2023-02-01T05:59:12.072Z,4.65
2023-02-01T06:01:40.401Z,4.20
2023-02-01T06:04:09.179Z,5.15
2023-02-01T06:06:38.118Z,3.90
2023-02-01T06:09:06.071Z,4.38
2023-02-01T06:11:34.407Z,4.55
2023-02-01T06:14:02.818Z,4.72
2023-02-01T06:16:32.848Z,3.75
2023-02-01T06:19:01.324Z,3.55
2023-02-01T06:21:29.881Z,4.65
2023-02-01T06:23:59.337Z,4.97
2023-02-01T06:26:27.377Z,4.82
2023-02-01T06:28:56.320Z,4.65
2023-02-01T06:31:24.598Z,4.15
2023-02-01T06:33:53.205Z,3.83
2023-02-01T06:36:22.262Z,3.88
2023-02-01T06:38:52.429Z,3.75
2023-02-01T06:41:21.664Z,4.80
2023-02-01T06:43:49.776Z,4.32
2023-02-01T06:46:17.769Z,4.32
2023-02-01T06:48:47.140Z,3.92
2023-02-01T06:51:24.558Z,4.28
2023-02-01T06:53:54.633Z,4.53
2023-02-01T06:56:25.967Z,4.32
2023-02-01T06:58:56.283Z,4.65
2023-02-01T07:01:23.409Z,3.83
2023-02-01T07:03:52.500Z,4.82
2023-02-01T07:06:21.087Z,3.30
2023-02-01T07:08:48.777Z,4.85
2023-02-01T07:11:20.561Z,4.53
2023-02-01T07:13:49.561Z,3.55
2023-02-01T07:16:22.288Z,5.05
2023-02-01T07:18:54.070Z,4.65
2023-02-01T07:21:24.152Z,3.67
2023-02-01T07:23:54.639Z,5.18
2023-02-01T07:26:24.664Z,3.85
2023-02-01T07:28:54.717Z,4.72
2023-02-01T07:31:27.543Z,3.38
2023-02-01T07:33:59.220Z,5.68
2023-02-01T07:36:29.233Z,4.30
2023-02-01T07:39:00.373Z,4.30
2023-02-01T07:41:30.440Z,3.72
2023-02-01T07:44:00.462Z,4.53
2023-02-01T07:46:30.594Z,4.55
2023-02-01T07:49:01.262Z,4.80
2023-02-01T07:51:31.320Z,4.20
2023-02-01T07:54:01.372Z,4.65
2023-02-01T07:56:31.647Z,4.90
2023-02-01T07:59:02.504Z,5.28
2023-02-01T08:01:32.650Z,4.57
2023-02-01T08:04:04.976Z,5.50
2023-02-01T08:06:35.700Z,5.28
2023-02-01T08:09:09.226Z,5.38
2023-02-01T08:11:39.639Z,5.57
2023-02-01T08:14:09.832Z,5.55
2023-02-01T08:16:40.299Z,4.90
2023-02-01T08:19:09.538Z,4.68
2023-02-01T08:21:38.141Z,3.92
2023-02-01T08:24:11.330Z,5.90
2023-02-01T08:26:38.815Z,5.05
2023-02-01T08:29:13.530Z,4.82
2023-02-01T08:31:42.797Z,4.57
2023-02-01T08:34:15.001Z,5.20
2023-02-01T08:36:42.710Z,5.35
2023-02-01T08:39:13.234Z,5.40
2023-02-01T08:42:02.891Z,5.63
2023-02-01T08:44:32.989Z,5.40
2023-02-01T08:47:04.884Z,5.85
2023-02-01T08:49:34.005Z,4.85
2023-02-01T08:52:07.242Z,4.95
2023-02-01T08:54:42.149Z,4.18
2023-02-01T08:57:12.187Z,4.40
2023-02-01T08:59:42.328Z,3.72
2023-02-01T09:02:16.118Z,3.40
2023-02-01T09:04:46.198Z,3.92
2023-02-01T09:07:17.815Z,2.65
2023-02-01T09:09:47.883Z,3.25
2023-02-01T09:12:18.174Z,3.13
2023-02-01T09:14:48.182Z,2.58
2023-02-01T09:17:18.363Z,2.50
2023-02-01T09:19:48.379Z,2.75
2023-02-01T09:22:18.504Z,2.38
2023-02-01T09:24:49.036Z,3.78
2023-02-01T09:27:19.282Z,2.60
2023-02-01T09:29:53.895Z,2.08
2023-02-01T09:32:25.692Z,2.05
2023-02-01T09:34:55.773Z,2.20
2023-02-01T09:37:25.861Z,1.90
2023-02-01T09:39:55.921Z,2.17
2023-02-01T09:43:39.853Z,1.70
2023-02-01T09:46:34.024Z,2.28
2023-02-01T09:49:22.834Z,2.22
2023-02-01T09:51:58.102Z,2.25
2023-02-01T09:54:47.740Z,2.50
2023-02-01T09:57:52.299Z,2.13
2023-02-01T10:00:36.036Z,1.95
2023-02-01T10:03:14.331Z,2.40
2023-02-01T10:06:24.431Z,1.83
2023-02-01T10:09:32.124Z,2.00
2023-02-01T10:12:39.595Z,2.03
2023-02-01T10:15:42.697Z,2.47
2023-02-01T10:18:59.290Z,1.63
2023-02-01T10:22:03.627Z,1.65
2023-02-01T10:25:04.466Z,2.03
2023-02-01T10:27:41.445Z,2.30
2023-02-01T10:30:22.679Z,1.60
2023-02-01T10:33:34.674Z,1.88
2023-02-01T10:36:30.307Z,1.70
2023-02-01T10:39:01.175Z,1.80
2023-02-01T10:41:41.822Z,1.85
2023-02-01T10:44:23.510Z,2.20
2023-02-01T10:46:53.751Z,1.90
2023-02-01T10:49:56.550Z,1.98
2023-02-01T10:52:59.741Z,2.22
2023-02-01T10:55:52.475Z,2.03
2023-02-01T10:58:37.413Z,2.15
2023-02-01T11:01:16.561Z,1.50
2023-02-01T11:03:57.663Z,2.17
2023-02-01T11:06:41.459Z,2.20
2023-02-01T11:09:19.343Z,2.33
2023-02-01T11:11:49.253Z,1.73
2023-02-01T11:14:41.688Z,2.17
2023-02-01T11:17:37.342Z,2.38
2023-02-01T11:20:20.931Z,2.22
2023-02-01T11:22:56.546Z,2.20
2023-02-01T11:27:58.468Z,2.38
2023-02-01T11:30:44.249Z,3.00
2023-02-01T11:33:24.961Z,2.20
2023-02-01T11:35:55.204Z,1.90
2023-02-01T11:38:33.583Z,2.45
2023-02-01T11:41:28.941Z,2.03
2023-02-01T11:44:35.333Z,2.30
2023-02-01T11:47:30.054Z,2.55
2023-02-01T11:50:17.667Z,2.38
2023-02-01T11:53:11.993Z,2.70
2023-02-01T11:56:13.090Z,2.15
2023-02-01T11:59:31.033Z,3.03
2023-02-01T12:03:21.092Z,2.40
2023-02-01T12:06:55.564Z,2.00
2023-02-01T12:10:37.370Z,1.90
2023-02-01T12:14:02.507Z,2.42
2023-02-01T12:17:26.702Z,2.72
2023-02-01T12:20:38.939Z,2.63
2023-02-01T12:23:47.099Z,1.95
2023-02-01T12:26:41.272Z,2.22
2023-02-01T12:29:59.170Z,2.60
2023-02-01T12:33:02.411Z,5.75
2023-02-01T12:36:43.012Z,2.63
2023-02-01T12:39:47.359Z,2.33
2023-02-01T12:42:37.468Z,3.13
2023-02-01T12:45:46.899Z,2.53
2023-02-01T12:48:44.053Z,2.75
2023-02-01T12:51:30.600Z,2.80
2023-02-01T12:54:24.481Z,1.67
2023-02-01T12:57:35.827Z,2.55
2023-02-01T13:00:36.243Z,2.10
2023-02-01T13:04:13.725Z,1.80
2023-02-01T13:06:56.930Z,2.33
2023-02-01T13:09:47.144Z,2.10
2023-02-01T13:12:53.204Z,2.40
2023-02-01T13:15:37.554Z,1.75
2023-02-01T13:18:19.847Z,1.85
2023-02-01T13:20:55.911Z,1.85
2023-02-01T13:23:32.433Z,2.42
2023-02-01T13:26:00.584Z,1.80
2023-02-01T13:28:55.679Z,2.42
2023-02-01T13:31:40.385Z,2.10
2023-02-01T13:34:55.224Z,2.45
2023-02-01T13:37:58.842Z,2.22
2023-02-01T13:40:40.550Z,2.30
2023-02-01T13:43:32.805Z,2.50
2023-02-01T13:46:15.771Z,2.72
2023-02-01T13:48:58.533Z,2.72
2023-02-01T13:51:48.222Z,3.63
2023-02-01T13:54:40.183Z,2.88
2023-02-01T13:57:45.983Z,2.90
2023-02-01T14:00:37.241Z,3.03
2023-02-01T14:03:05.802Z,2.75
2023-02-01T14:05:54.178Z,2.80
2023-02-01T14:08:48.349Z,3.35
2023-02-01T14:11:45.792Z,3.55
2023-02-01T14:14:18.543Z,3.22
2023-02-01T14:16:54.889Z,2.80
2023-02-01T14:19:33.043Z,3.10
2023-02-01T14:22:21.957Z,2.75
2023-02-01T14:24:59.095Z,2.78
2023-02-01T14:27:37.116Z,2.72
2023-02-01T14:30:17.642Z,3.50
2023-02-01T14:32:47.969Z,3.17
2023-02-01T14:35:28.324Z,2.88
2023-02-01T14:38:05.171Z,2.63
2023-02-01T14:40:36.903Z,3.20
2023-02-01T14:43:09.807Z,2.50
2023-02-01T14:45:59.715Z,2.88
2023-02-01T14:48:30.742Z,2.75
2023-02-01T14:51:02.989Z,2.95
2023-02-01T14:53:37.092Z,2.88
2023-02-01T14:56:14.303Z,3.28
2023-02-01T14:59:13.979Z,2.67
2023-02-01T15:01:59.671Z,2.97
2023-02-01T15:04:29.131Z,2.50
2023-02-01T15:07:13.504Z,3.22
2023-02-01T15:09:50.106Z,3.50
2023-02-01T15:12:32.836Z,2.78
2023-02-01T15:15:26.841Z,2.42
2023-02-01T15:18:04.184Z,2.60
2023-02-01T15:20:34.742Z,2.45
2023-02-01T15:23:18.693Z,2.15
2023-02-01T15:25:48.587Z,2.30
2023-02-01T15:28:19.404Z,2.85
2023-02-01T15:31:09.098Z,2.10
2023-02-01T15:33:36.462Z,1.88
2023-02-01T15:36:06.608Z,1.58
2023-02-01T15:38:45.730Z,1.70
2023-02-01T15:41:19.528Z,1.70
2023-02-01T15:43:55.408Z,1.85
2023-02-01T15:46:46.209Z,1.95
2023-02-01T15:49:32.330Z,2.13
2023-02-01T15:52:11.884Z,1.88
2023-02-01T15:54:54.151Z,1.73
2023-02-01T15:57:34.635Z,2.40
2023-02-01T16:00:28.487Z,2.08
2023-02-01T16:03:07.061Z,2.65
2023-02-01T16:05:43.617Z,2.70
2023-02-01T16:08:25.819Z,2.80
2023-02-01T16:11:23.776Z,4.88
2023-02-01T16:13:53.812Z,5.35
2023-02-01T16:16:24.885Z,4.75
2023-02-01T16:18:55.336Z,7.40
2023-02-01T16:21:25.534Z,4.47
2023-02-01T16:23:55.626Z,4.25
2023-02-01T16:26:25.695Z,3.90
2023-02-01T16:28:54.029Z,4.22
2023-02-01T16:31:32.167Z,1.90
2023-02-01T16:34:02.851Z,2.80
2023-02-01T16:36:34.797Z,1.30
2023-02-01T16:39:04.976Z,1.10
2023-02-01T16:41:35.010Z,1.10
2023-02-01T16:44:05.186Z,1.30
2023-02-01T16:46:44.074Z,1.17
2023-02-01T16:49:26.817Z,1.15
2023-02-01T16:52:00.277Z,1.08
2023-02-01T16:54:28.509Z,1.17
2023-02-01T16:56:58.318Z,1.20
2023-02-01T16:59:28.194Z,1.10
2023-02-01T17:01:58.106Z,1.20
2023-02-01T17:04:27.903Z,0.95
2023-02-01T17:06:59.289Z,1.30
2023-02-01T17:09:28.689Z,1.10
2023-02-01T17:11:58.613Z,1.55
2023-02-01T17:14:28.557Z,1.75
2023-02-01T17:17:01.695Z,1.15
2023-02-01T17:19:31.275Z,3.38
2023-02-01T17:22:01.141Z,1.38
2023-02-01T17:24:47.562Z,1.25
2023-02-01T17:27:19.961Z,1.88
2023-02-01T17:29:49.291Z,1.60
2023-02-01T17:32:25.895Z,1.65
2023-02-01T17:34:55.962Z,1.83
2023-02-01T17:37:34.558Z,1.73
2023-02-01T17:40:04.754Z,1.58
2023-02-01T17:42:34.306Z,3.22
2023-02-01T17:45:37.474Z,1.70
2023-02-01T17:48:08.932Z,1.73
2023-02-01T17:50:40.082Z,1.42
2023-02-01T17:53:11.686Z,1.75
2023-02-01T17:55:46.236Z,1.30
2023-02-01T17:58:17.619Z,1.40
2023-02-01T18:00:50.087Z,1.60
2023-02-01T18:03:30.455Z,1.58
2023-02-01T18:06:01.487Z,1.50
2023-02-01T18:08:33.777Z,2.40
2023-02-01T18:11:04.016Z,1.88
2023-02-01T18:13:33.721Z,1.67
2023-02-01T18:16:04.663Z,1.95
2023-02-01T18:18:35.642Z,1.52
2023-02-01T18:21:04.808Z,1.88
2023-02-01T18:23:34.552Z,2.13
2023-02-01T18:26:04.817Z,2.13
2023-02-01T18:28:32.465Z,2.17
2023-02-01T18:31:03.133Z,1.90
2023-02-01T18:33:33.410Z,1.60
2023-02-01T18:36:03.366Z,1.30
2023-02-01T18:38:33.188Z,2.75
2023-02-01T18:41:05.194Z,2.17
2023-02-01T18:43:35.211Z,2.08
2023-02-01T18:46:02.608Z,1.85
2023-02-01T18:48:31.226Z,2.08
2023-02-01T18:50:59.547Z,1.95
2023-02-01T18:53:28.519Z,1.63
2023-02-01T18:56:00.096Z,2.58
2023-02-01T18:58:30.187Z,1.63
2023-02-01T19:01:14.449Z,3.00
2023-02-01T19:03:50.683Z,1.90
2023-02-01T19:06:23.705Z,2.38
2023-02-01T19:08:56.172Z,1.85
2023-02-01T19:11:26.313Z,2.15
2023-02-01T19:13:56.373Z,2.22
2023-02-01T19:16:26.198Z,2.20
2023-02-01T19:18:55.995Z,2.28
2023-02-01T19:21:25.779Z,2.35
2023-02-01T19:23:55.772Z,1.70
2023-02-01T19:26:25.663Z,2.63
2023-02-01T19:28:58.908Z,2.50
2023-02-01T19:31:28.559Z,2.65
2023-02-01T19:33:56.872Z,2.20
2023-02-01T19:36:26.858Z,1.98
2023-02-01T19:38:56.847Z,1.80
2023-02-01T19:41:25.229Z,2.25
2023-02-01T19:43:53.548Z,2.50
2023-02-01T19:46:22.038Z,2.10
2023-02-01T19:48:50.450Z,2.15
2023-02-01T19:51:19.129Z,4.78
2023-02-01T19:53:47.389Z,1.90
2023-02-01T19:56:15.721Z,3.03
2023-02-01T19:58:44.298Z,2.17
2023-02-01T20:01:12.780Z,2.03
2023-02-01T20:03:40.282Z,1.92
2023-02-01T20:06:09.943Z,2.03
2023-02-01T20:08:37.905Z,2.03
2023-02-01T20:11:08.144Z,2.40
2023-02-01T20:13:38.734Z,2.75
2023-02-01T20:16:06.768Z,2.63
2023-02-01T20:18:36.434Z,2.25
2023-02-01T20:21:06.471Z,2.50
2023-02-01T20:23:36.904Z,2.60
2023-02-01T20:26:12.236Z,2.85
2023-02-01T20:28:40.090Z,1.73
2023-02-01T20:31:12.389Z,2.40
2023-02-01T20:33:41.688Z,2.40
2023-02-01T20:36:10.851Z,2.13
2023-02-01T20:38:40.746Z,2.35
2023-02-01T20:41:10.234Z,2.95
2023-02-01T20:43:37.724Z,2.42
2023-02-01T20:46:08.827Z,2.63
2023-02-01T20:48:36.999Z,2.20
2023-02-01T20:51:04.961Z,2.08
2023-02-01T20:53:33.550Z,2.85
2023-02-01T20:56:03.094Z,2.03
2023-02-01T20:58:32.078Z,2.00
2023-02-01T21:01:00.240Z,2.42
2023-02-01T21:03:28.437Z,1.98
2023-02-01T21:06:00.649Z,2.50
2023-02-01T21:08:32.599Z,1.98
2023-02-01T21:11:11.928Z,1.70
2023-02-01T21:13:50.667Z,2.45
2023-02-01T21:16:22.336Z,2.95
2023-02-01T21:18:53.690Z,2.90
2023-02-01T21:21:23.859Z,3.05
2023-02-01T21:23:57.606Z,2.47
2023-02-01T21:26:29.163Z,3.08
2023-02-01T21:28:58.946Z,2.10
2023-02-01T21:31:28.830Z,2.15
2023-02-01T21:33:58.484Z,2.55
2023-02-01T21:36:31.151Z,2.22
2023-02-01T21:39:05.001Z,1.73
2023-02-01T21:41:55.906Z,2.45
2023-02-01T21:44:25.350Z,2.03
2023-02-01T21:46:55.736Z,2.92
2023-02-01T21:49:27.591Z,2.40
2023-02-01T21:51:58.363Z,2.30
2023-02-01T21:54:28.346Z,2.00
2023-02-01T21:56:58.208Z,2.13
2023-02-01T21:59:28.019Z,2.05
2023-02-01T22:01:57.959Z,2.03
2023-02-01T22:04:27.674Z,1.83
2023-02-01T22:06:57.665Z,2.08
2023-02-01T22:09:27.489Z,2.03
2023-02-01T22:11:58.176Z,2.10
2023-02-01T22:14:28.225Z,2.50
2023-02-01T22:16:57.896Z,1.60
2023-02-01T22:19:27.748Z,1.80
2023-02-01T22:21:57.554Z,2.25
2023-02-01T22:24:27.428Z,1.88
2023-02-01T22:27:14.186Z,1.88
2023-02-01T22:29:43.999Z,1.75
2023-02-01T22:32:14.177Z,2.53
2023-02-01T22:34:44.112Z,2.30
2023-02-01T22:37:14.307Z,2.45
2023-02-01T22:39:43.895Z,2.22
2023-02-01T22:42:18.555Z,1.65
2023-02-01T22:44:48.569Z,2.25
2023-02-01T22:47:18.277Z,1.60
2023-02-01T22:49:48.198Z,2.63
2023-02-01T22:52:18.005Z,2.45
2023-02-01T22:54:47.836Z,2.10
2023-02-01T22:57:17.600Z,2.10
2023-02-01T22:59:48.008Z,2.28
2023-02-01T23:02:17.453Z,3.10
2023-02-01T23:04:47.135Z,2.10
2023-02-01T23:07:16.818Z,2.35
2023-02-01T23:09:46.778Z,1.75
2023-02-01T23:12:16.868Z,3.60
2023-02-01T23:15:06.280Z,2.35
2023-02-01T23:17:40.211Z,3.17
2023-02-01T23:20:17.393Z,2.92
2023-02-01T23:22:49.553Z,1.98
2023-02-01T23:25:19.640Z,2.40
2023-02-01T23:27:49.508Z,2.67
2023-02-01T23:30:19.631Z,3.42
2023-02-01T23:32:49.389Z,2.33
2023-02-01T23:35:19.235Z,3.03
2023-02-01T23:37:49.054Z,3.03
2023-02-01T23:40:19.342Z,2.85
2023-02-01T23:43:09.443Z,2.95
2023-02-01T23:45:39.160Z,3.10
2023-02-01T23:48:08.867Z,2.97
2023-02-01T23:50:38.625Z,3.13
2023-02-01T23:53:08.395Z,3.03
2023-02-01T23:55:38.376Z,2.58
2023-02-01T23:58:08.196Z,3.47
